Time;durP1;ratioP1;P1;durP2;ratioP2;P2;SDS_P1;SDS_P2;PMS_P1;PMS_P2;Temp;Humidity;BMP_temperature;BMP_pressure;BME280_temperature;BME280_humidity;BME280_pressure;Samples;Min_cycle;Max_cycle;Signal;HPM_P1;HPM_P2
2021/12/09 00:01:10;;;;;;;14.03;5.07;;;;;;;;;;4991649;28;20182;-71
2021/12/09 00:03:40;;;;;;;12.40;5.90;;;;;;;;;;4986208;28;20195;-70
2021/12/09 00:06:07;;;;;;;15.13;6.20;;;;;;;;;;5001066;28;20174;-70
2021/12/09 00:08:33;;;;;;;13.50;7.37;;;;;;;;;;4993206;28;20222;-70
2021/12/09 00:11:00;;;;;;;13.17;5.70;;;;;;;;;;4995419;28;20199;-70
2021/12/09 00:13:28;;;;;;;13.80;5.77;;;;;;;;;;4999374;28;20216;-70
2021/12/09 00:15:54;;;;;;;14.73;6.33;;;;;;;;;;4995351;28;20253;-70
2021/12/09 00:18:20;;;;;;;12.80;5.17;;;;;;;;;;4997869;28;20231;-71
2021/12/09 00:20:45;;;;;;;16.23;5.53;;;;;;;;;;4992094;28;20248;-70
2021/12/09 00:23:11;;;;;;;17.00;6.23;;;;;;;;;;4999492;28;20200;-72
2021/12/09 00:25:37;;;;;;;11.77;5.13;;;;;;;;;;4991638;28;20229;-71
2021/12/09 00:28:03;;;;;;;16.90;5.67;;;;;;;;;;4997362;28;20218;-70
2021/12/09 00:30:30;;;;;;;14.00;5.80;;;;;;;;;;4999043;28;20296;-71
2021/12/09 00:32:57;;;;;;;16.37;5.57;;;;;;;;;;5008765;28;20218;-70
2021/12/09 00:35:28;;;;;;;16.33;6.10;;;;;;;;;;4994790;28;20650;-70
2021/12/09 00:37:59;;;;;;;13.27;5.73;;;;;;;;;;5008329;28;20186;-70
2021/12/09 00:40:25;;;;;;;12.40;5.13;;;;;;;;;;5005873;28;20186;-70
2021/12/09 00:42:50;;;;;;;14.47;6.03;;;;;;;;;;5005437;28;20638;-71
2021/12/09 00:45:16;;;;;;;11.40;6.13;;;;;;;;;;5009400;28;20261;-71
2021/12/09 00:47:42;;;;;;;11.87;5.87;;;;;;;;;;5002876;28;20195;-71
2021/12/09 00:50:08;;;;;;;15.17;5.97;;;;;;;;;;5014783;28;20607;-71
2021/12/09 00:52:34;;;;;;;12.90;6.03;;;;;;;;;;5004291;28;20657;-71
2021/12/09 00:54:59;;;;;;;15.00;5.80;;;;;;;;;;5018277;28;20236;-71
2021/12/09 00:57:25;;;;;;;16.73;7.03;;;;;;;;;;5008386;28;20213;-71
2021/12/09 00:59:51;;;;;;;14.97;6.20;;;;;;;;;;5019154;28;20233;-71
2021/12/09 01:02:17;;;;;;;15.73;6.70;;;;;;;;;;5006784;28;20222;-71
2021/12/09 01:04:45;;;;;;;15.13;6.57;;;;;;;;;;5012862;28;20204;-71
2021/12/09 01:07:10;;;;;;;15.37;6.73;;;;;;;;;;5002533;28;20218;-71
2021/12/09 01:09:36;;;;;;;17.60;7.33;;;;;;;;;;5011660;28;20269;-71
2021/12/09 01:12:03;;;;;;;17.83;6.43;;;;;;;;;;5011995;28;20290;-71
2021/12/09 01:14:29;;;;;;;10.83;6.03;;;;;;;;;;5003405;28;20674;-71
2021/12/09 01:16:54;;;;;;;13.57;7.17;;;;;;;;;;5027343;28;20239;-71
2021/12/09 01:19:19;;;;;;;14.97;6.90;;;;;;;;;;5000182;28;20710;-71
2021/12/09 01:21:45;;;;;;;13.97;6.83;;;;;;;;;;5016639;28;20193;-71
2021/12/09 01:24:10;;;;;;;18.67;7.10;;;;;;;;;;5004850;28;20257;-70
2021/12/09 01:26:37;;;;;;;18.30;8.13;;;;;;;;;;5018564;28;20213;-71
2021/12/09 01:29:11;;;;;;;19.53;7.93;;;;;;;;;;5004576;28;20187;-71
2021/12/09 01:31:38;;;;;;;16.10;7.97;;;;;;;;;;5011949;28;20599;-71
2021/12/09 01:34:04;;;;;;;15.63;8.43;;;;;;;;;;5005547;28;20210;-71
2021/12/09 01:36:32;;;;;;;16.53;8.27;;;;;;;;;;5016842;28;20381;-71
2021/12/09 01:38:58;;;;;;;19.53;8.80;;;;;;;;;;5003315;28;20194;-71
2021/12/09 01:41:24;;;;;;;19.10;8.07;;;;;;;;;;5012204;28;20643;-71
2021/12/09 01:43:49;;;;;;;13.33;8.50;;;;;;;;;;5000220;28;20194;-71
2021/12/09 01:46:17;;;;;;;17.37;7.73;;;;;;;;;;5004136;28;20198;-71
2021/12/09 01:48:45;;;;;;;16.47;8.10;;;;;;;;;;4992240;28;20613;-71
2021/12/09 01:51:11;;;;;;;18.77;8.47;;;;;;;;;;5002313;28;20194;-71
2021/12/09 01:53:38;;;;;;;19.60;8.20;;;;;;;;;;5009165;28;20697;-71
2021/12/09 01:56:06;;;;;;;14.47;8.53;;;;;;;;;;5002265;28;20273;-71
2021/12/09 01:58:32;;;;;;;14.97;8.23;;;;;;;;;;5005183;28;20709;-70
2021/12/09 02:00:57;;;;;;;19.23;8.47;;;;;;;;;;5000581;28;20191;-71
2021/12/09 02:03:23;;;;;;;19.77;8.40;;;;;;;;;;5009700;28;20519;-70
2021/12/09 02:05:49;;;;;;;19.47;8.23;;;;;;;;;;5004513;28;20190;-71
2021/12/09 02:08:16;;;;;;;14.57;7.10;;;;;;;;;;5011672;28;20190;-70
2021/12/09 02:10:43;;;;;;;12.40;7.17;;;;;;;;;;5003165;28;20560;-71
2021/12/09 02:13:09;;;;;;;16.00;6.93;;;;;;;;;;5006757;28;20642;-71
2021/12/09 02:15:35;;;;;;;21.97;7.53;;;;;;;;;;4997459;28;20896;-71
2021/12/09 02:18:04;;;;;;;20.00;8.10;;;;;;;;;;5011701;28;20261;-71
2021/12/09 02:20:33;;;;;;;19.60;7.80;;;;;;;;;;5002761;28;20286;-71
2021/12/09 02:22:58;;;;;;;21.50;8.10;;;;;;;;;;5006344;28;20570;-71
2021/12/09 02:25:24;;;;;;;21.07;7.83;;;;;;;;;;5006704;28;20199;-71
2021/12/09 02:27:50;;;;;;;23.53;8.53;;;;;;;;;;5002960;28;20256;-71
2021/12/09 02:30:16;;;;;;;16.43;7.93;;;;;;;;;;5009133;28;20299;-71
2021/12/09 02:32:43;;;;;;;18.93;8.47;;;;;;;;;;4994325;28;20210;-71
2021/12/09 02:35:09;;;;;;;16.37;7.93;;;;;;;;;;5008333;28;20273;-70
2021/12/09 02:37:35;;;;;;;13.43;7.00;;;;;;;;;;5004012;28;20713;-71
2021/12/09 02:40:02;;;;;;;17.43;8.50;;;;;;;;;;5008992;28;20179;-71
2021/12/09 02:42:27;;;;;;;18.50;8.50;;;;;;;;;;5002339;28;20190;-71
2021/12/09 02:44:55;;;;;;;20.17;9.03;;;;;;;;;;5008926;28;20258;-71
2021/12/09 02:47:21;;;;;;;22.90;9.50;;;;;;;;;;5001391;28;20187;-70
2021/12/09 02:49:46;;;;;;;18.93;9.43;;;;;;;;;;5008690;28;20178;-71
2021/12/09 02:52:11;;;;;;;21.27;9.63;;;;;;;;;;4999912;28;20190;-71
2021/12/09 02:54:37;;;;;;;22.37;8.97;;;;;;;;;;5008040;28;20218;-70
2021/12/09 02:57:05;;;;;;;20.90;9.27;;;;;;;;;;5009013;28;20210;-70
2021/12/09 02:59:32;;;;;;;24.37;10.80;;;;;;;;;;5000336;28;20505;-71
2021/12/09 03:01:58;;;;;;;24.63;10.07;;;;;;;;;;5009124;28;20187;-71
2021/12/09 03:04:26;;;;;;;27.57;10.07;;;;;;;;;;4992474;28;20183;-71
2021/12/09 03:06:53;;;;;;;24.43;10.47;;;;;;;;;;5009057;28;20186;-71
2021/12/09 03:09:20;;;;;;;18.73;9.77;;;;;;;;;;4999761;28;20187;-70
2021/12/09 03:11:53;;;;;;;19.17;9.00;;;;;;;;;;5007889;28;20540;-70
2021/12/09 03:14:19;;;;;;;21.90;9.77;;;;;;;;;;4992001;28;20547;-70
2021/12/09 03:16:45;;;;;;;17.17;9.97;;;;;;;;;;5006826;28;20599;-71
2021/12/09 03:19:10;;;;;;;24.43;10.50;;;;;;;;;;5002435;28;20238;-70
2021/12/09 03:21:43;;;;;;;19.90;10.03;;;;;;;;;;5006384;28;20221;-70
2021/12/09 03:24:18;;;;;;;16.73;8.47;;;;;;;;;;4993716;28;20725;-70
2021/12/09 03:26:50;;;;;;;22.00;9.77;;;;;;;;;;5006223;28;20194;-71
2021/12/09 03:29:18;;;;;;;18.63;8.90;;;;;;;;;;4998028;28;20232;-70
2021/12/09 03:31:46;;;;;;;19.10;8.70;;;;;;;;;;5006034;28;20229;-70
2021/12/09 03:34:13;;;;;;;17.83;9.20;;;;;;;;;;5002867;28;20216;-71
2021/12/09 03:36:40;;;;;;;25.30;9.57;;;;;;;;;;4999663;28;20219;-70
2021/12/09 03:39:18;;;;;;;19.70;8.53;;;;;;;;;;5006821;28;20261;-71
2021/12/09 03:41:45;;;;;;;17.17;8.33;;;;;;;;;;5002000;28;20185;-71
2021/12/09 03:44:11;;;;;;;17.33;9.00;;;;;;;;;;5007401;28;20277;-71
2021/12/09 03:46:36;;;;;;;19.90;9.57;;;;;;;;;;4991111;28;20270;-71
2021/12/09 03:49:03;;;;;;;22.77;9.90;;;;;;;;;;5000802;28;20195;-71
2021/12/09 03:51:28;;;;;;;22.80;9.30;;;;;;;;;;4995574;28;20187;-71
2021/12/09 03:53:54;;;;;;;20.80;9.50;;;;;;;;;;5007562;28;20214;-71
2021/12/09 03:56:20;;;;;;;17.53;10.17;;;;;;;;;;4994916;28;20262;-71
2021/12/09 03:58:46;;;;;;;22.17;9.73;;;;;;;;;;5004964;28;20206;-71
2021/12/09 04:01:12;;;;;;;24.10;10.17;;;;;;;;;;4997369;28;20186;-71
2021/12/09 04:03:37;;;;;;;20.60;9.50;;;;;;;;;;5005929;28;20201;-71
2021/12/09 04:06:03;;;;;;;24.67;10.03;;;;;;;;;;5000291;28;20186;-71
2021/12/09 04:08:28;;;;;;;21.37;10.03;;;;;;;;;;5005195;28;20186;-71
2021/12/09 04:10:54;;;;;;;23.63;10.67;;;;;;;;;;5006861;28;20189;-71
2021/12/09 04:13:20;;;;;;;27.57;9.87;;;;;;;;;;4998082;28;20207;-71
2021/12/09 04:15:45;;;;;;;22.87;10.37;;;;;;;;;;5005317;28;20182;-71
2021/12/09 04:18:10;;;;;;;23.50;10.60;;;;;;;;;;4997913;28;20230;-71
2021/12/09 04:20:37;;;;;;;29.67;10.40;;;;;;;;;;5004176;28;20285;-71
2021/12/09 04:23:03;;;;;;;21.97;10.63;;;;;;;;;;4997363;28;20221;-71
2021/12/09 04:25:29;;;;;;;26.70;10.50;;;;;;;;;;5001754;28;20209;-71
2021/12/09 04:27:55;;;;;;;20.40;10.90;;;;;;;;;;4996723;28;20182;-71
2021/12/09 04:30:22;;;;;;;28.80;11.77;;;;;;;;;;5007414;28;20179;-71
2021/12/09 04:32:49;;;;;;;25.30;11.63;;;;;;;;;;4998112;28;20186;-71
2021/12/09 04:35:15;;;;;;;22.87;9.93;;;;;;;;;;5013843;28;20229;-71
2021/12/09 04:37:40;;;;;;;22.87;10.70;;;;;;;;;;4997606;28;20198;-71
2021/12/09 04:40:08;;;;;;;20.30;10.20;;;;;;;;;;5005267;28;20273;-71
2021/12/09 04:42:34;;;;;;;24.50;11.00;;;;;;;;;;5001080;28;20192;-71
2021/12/09 04:44:59;;;;;;;28.50;11.57;;;;;;;;;;4992272;28;20186;-71
2021/12/09 04:47:25;;;;;;;28.13;11.57;;;;;;;;;;5002358;28;20462;-71
2021/12/09 04:49:50;;;;;;;25.60;11.93;;;;;;;;;;4997670;28;20286;-71
2021/12/09 04:52:16;;;;;;;25.50;10.87;;;;;;;;;;5007864;28;20635;-71
2021/12/09 04:54:41;;;;;;;23.03;11.00;;;;;;;;;;5000334;28;20243;-71
2021/12/09 04:57:11;;;;;;;25.23;11.87;;;;;;;;;;5004054;28;20187;-71
2021/12/09 04:59:37;;;;;;;26.93;11.53;;;;;;;;;;4998653;28;20199;-71
2021/12/09 05:02:03;;;;;;;29.27;12.57;;;;;;;;;;5006158;28;20193;-71
2021/12/09 05:04:29;;;;;;;27.07;10.97;;;;;;;;;;4995325;28;20697;-71
2021/12/09 05:06:55;;;;;;;29.50;11.83;;;;;;;;;;5004922;28;20313;-71
2021/12/09 05:09:21;;;;;;;25.37;10.93;;;;;;;;;;4998036;28;20240;-71
2021/12/09 05:14:14;;;;;;;30.77;12.13;;;;;;;;;;4997955;28;20215;-71
2021/12/09 05:16:39;;;;;;;26.47;12.33;;;;;;;;;;5011213;28;20178;-71
2021/12/09 05:19:05;;;;;;;29.87;12.03;;;;;;;;;;5008049;28;20681;-70
2021/12/09 05:21:36;;;;;;;31.27;13.07;;;;;;;;;;5003970;28;20186;-71
2021/12/09 05:24:04;;;;;;;32.57;13.27;;;;;;;;;;5010256;28;20892;-71
2021/12/09 05:26:34;;;;;;;26.17;13.03;;;;;;;;;;5002103;28;20201;-71
2021/12/09 05:29:00;;;;;;;32.47;12.63;;;;;;;;;;5010413;28;20194;-70
2021/12/09 05:34:12;;;;;;;29.17;13.20;;;;;;;;;;5007208;28;20541;-71
2021/12/09 05:36:38;;;;;;;24.87;13.00;;;;;;;;;;5002974;28;20198;-71
2021/12/09 05:39:06;;;;;;;31.20;13.33;;;;;;;;;;5007783;28;20439;-71
2021/12/09 05:41:33;;;;;;;31.30;13.47;;;;;;;;;;5005175;28;20199;-71
2021/12/09 05:44:00;;;;;;;28.23;12.93;;;;;;;;;;5010040;28;20171;-70
2021/12/09 05:46:25;;;;;;;27.20;12.53;;;;;;;;;;5002600;28;20273;-71
2021/12/09 05:48:50;;;;;;;24.23;12.97;;;;;;;;;;5008809;28;20321;-70
2021/12/09 05:51:16;;;;;;;32.07;15.17;;;;;;;;;;5002413;28;20201;-71
2021/12/09 05:53:42;;;;;;;33.30;13.83;;;;;;;;;;5020655;28;20206;-70
2021/12/09 05:56:07;;;;;;;27.23;14.40;;;;;;;;;;5012935;28;20557;-70
2021/12/09 05:58:32;;;;;;;30.83;13.07;;;;;;;;;;4995898;28;20237;-70
2021/12/09 06:00:58;;;;;;;28.20;11.93;;;;;;;;;;5010373;28;20183;-71
2021/12/09 06:03:23;;;;;;;28.30;13.07;;;;;;;;;;5008550;28;20269;-71
2021/12/09 06:05:50;;;;;;;26.30;11.97;;;;;;;;;;5010680;28;20203;-70
2021/12/09 06:08:16;;;;;;;24.47;12.33;;;;;;;;;;5005413;28;20537;-71
2021/12/09 06:10:42;;;;;;;30.00;12.23;;;;;;;;;;5006283;28;20249;-71
2021/12/09 06:13:07;;;;;;;27.57;12.40;;;;;;;;;;5000269;28;20253;-70
2021/12/09 06:15:33;;;;;;;28.60;13.23;;;;;;;;;;5008609;28;20191;-71
2021/12/09 06:17:58;;;;;;;23.57;11.93;;;;;;;;;;4999596;28;20227;-71
2021/12/09 06:20:25;;;;;;;30.00;12.10;;;;;;;;;;5010081;28;20270;-71
2021/12/09 06:22:50;;;;;;;32.90;13.37;;;;;;;;;;4994633;28;20187;-70
2021/12/09 06:25:18;;;;;;;25.80;12.63;;;;;;;;;;5006207;28;20195;-71
2021/12/09 06:27:45;;;;;;;24.10;11.93;;;;;;;;;;4997503;28;20185;-71
2021/12/09 06:30:11;;;;;;;25.33;12.40;;;;;;;;;;5004320;28;20179;-71
2021/12/09 06:32:37;;;;;;;24.13;11.03;;;;;;;;;;5013121;28;20578;-70
2021/12/09 06:35:04;;;;;;;25.80;12.03;;;;;;;;;;5003183;28;20268;-71
2021/12/09 06:37:30;;;;;;;29.43;12.67;;;;;;;;;;5005126;28;20204;-71
2021/12/09 06:39:55;;;;;;;27.30;11.63;;;;;;;;;;4999269;28;20262;-71
2021/12/09 06:42:20;;;;;;;26.90;11.43;;;;;;;;;;5011048;28;20274;-70
2021/12/09 06:44:46;;;;;;;24.63;11.77;;;;;;;;;;4997432;28;20190;-71
2021/12/09 06:47:11;;;;;;;24.87;11.67;;;;;;;;;;5009670;28;20191;-70
2021/12/09 06:49:36;;;;;;;30.83;12.80;;;;;;;;;;4997695;28;20205;-70
2021/12/09 06:52:02;;;;;;;26.57;12.70;;;;;;;;;;5012854;28;20696;-71
2021/12/09 06:54:28;;;;;;;21.90;11.93;;;;;;;;;;4995398;28;20217;-71
2021/12/09 06:56:53;;;;;;;29.63;12.73;;;;;;;;;;5007807;28;20191;-71
2021/12/09 06:59:18;;;;;;;27.07;12.43;;;;;;;;;;5004212;28;20499;-71
2021/12/09 07:01:44;;;;;;;23.87;11.63;;;;;;;;;;5004335;28;20183;-70
2021/12/09 07:04:09;;;;;;;27.83;12.07;;;;;;;;;;5001468;28;20193;-70
2021/12/09 07:06:36;;;;;;;29.13;11.40;;;;;;;;;;5003223;28;20195;-71
2021/12/09 07:09:04;;;;;;;26.53;11.67;;;;;;;;;;5008709;28;20178;-69
2021/12/09 07:11:31;;;;;;;22.07;11.83;;;;;;;;;;5001474;28;20560;-70
2021/12/09 07:13:56;;;;;;;27.00;11.90;;;;;;;;;;5016705;28;20812;-71
2021/12/09 07:16:22;;;;;;;27.07;11.57;;;;;;;;;;5006775;28;20273;-69
2021/12/09 07:18:48;;;;;;;28.83;12.77;;;;;;;;;;5013472;28;20217;-70
2021/12/09 07:21:13;;;;;;;22.63;12.00;;;;;;;;;;5004224;28;20185;-70
2021/12/09 07:23:39;;;;;;;30.07;13.03;;;;;;;;;;5016529;28;20174;-70
2021/12/09 07:26:05;;;;;;;26.20;12.63;;;;;;;;;;5001569;28;20190;-70
2021/12/09 07:28:30;;;;;;;29.30;11.80;;;;;;;;;;5018163;28;20170;-70
2021/12/09 07:30:56;;;;;;;25.13;11.93;;;;;;;;;;5000102;28;20187;-70
2021/12/09 07:33:21;;;;;;;22.20;12.07;;;;;;;;;;5010296;28;20310;-70
2021/12/09 07:35:47;;;;;;;21.97;11.27;;;;;;;;;;5008189;28;20189;-70
2021/12/09 07:38:13;;;;;;;27.60;11.33;;;;;;;;;;5004650;28;20620;-70
2021/12/09 07:40:39;;;;;;;30.07;11.13;;;;;;;;;;5006181;28;20289;-70
2021/12/09 07:43:05;;;;;;;19.63;10.57;;;;;;;;;;4997762;28;20273;-70
2021/12/09 07:45:31;;;;;;;25.37;10.73;;;;;;;;;;5005474;28;20320;-70
2021/12/09 07:47:57;;;;;;;25.13;10.70;;;;;;;;;;4998966;28;20635;-70
2021/12/09 07:50:24;;;;;;;24.53;10.30;;;;;;;;;;5008770;28;20225;-70
2021/12/09 07:52:51;;;;;;;26.27;11.10;;;;;;;;;;5001512;28;20205;-70
2021/12/09 07:55:18;;;;;;;30.03;10.80;;;;;;;;;;5007646;28;20213;-70
2021/12/09 07:57:43;;;;;;;23.27;11.50;;;;;;;;;;5003246;28;20195;-70
2021/12/09 08:00:19;;;;;;;24.13;10.17;;;;;;;;;;5013269;28;20613;-70
2021/12/09 08:02:46;;;;;;;28.77;10.53;;;;;;;;;;4992081;28;21256;-70
2021/12/09 08:05:13;;;;;;;29.67;11.07;;;;;;;;;;5007635;28;20707;-70
2021/12/09 08:07:41;;;;;;;27.07;10.77;;;;;;;;;;5012095;28;20202;-70
2021/12/09 08:10:12;;;;;;;26.43;10.47;;;;;;;;;;5003425;28;20185;-70
2021/12/09 08:12:38;;;;;;;25.07;11.20;;;;;;;;;;5006691;28;20214;-70
2021/12/09 08:15:05;;;;;;;24.20;10.80;;;;;;;;;;4999137;28;20250;-70
2021/12/09 08:20:05;;;;;;;27.60;11.13;;;;;;;;;;4992686;28;20218;-70
2021/12/09 08:22:31;;;;;;;21.83;10.20;;;;;;;;;;5003575;28;20199;-70
2021/12/09 08:24:56;;;;;;;23.53;10.77;;;;;;;;;;4997312;28;20213;-70
2021/12/09 08:27:22;;;;;;;24.30;10.63;;;;;;;;;;5002516;28;20260;-70
2021/12/09 08:29:48;;;;;;;29.13;11.47;;;;;;;;;;5000953;28;20650;-70
2021/12/09 08:32:13;;;;;;;23.00;10.80;;;;;;;;;;5004177;28;20249;-70
2021/12/09 08:34:39;;;;;;;30.30;12.17;;;;;;;;;;5002894;28;20233;-70
2021/12/09 08:37:04;;;;;;;24.40;10.70;;;;;;;;;;5012488;28;20189;-71
2021/12/09 08:39:30;;;;;;;26.70;11.43;;;;;;;;;;5008065;28;20190;-71
2021/12/09 08:41:55;;;;;;;23.63;11.57;;;;;;;;;;5007722;28;20214;-70
2021/12/09 08:44:21;;;;;;;24.60;10.53;;;;;;;;;;5015993;28;20638;-70
2021/12/09 08:46:46;;;;;;;20.77;10.57;;;;;;;;;;5002441;28;20194;-70
2021/12/09 08:49:12;;;;;;;26.47;11.83;;;;;;;;;;5014801;28;20850;-71
2021/12/09 08:51:37;;;;;;;29.27;11.60;;;;;;;;;;5006690;28;20323;-71
2021/12/09 08:54:04;;;;;;;31.40;11.60;;;;;;;;;;5010906;28;20217;-71
2021/12/09 08:56:30;;;;;;;24.17;11.10;;;;;;;;;;5005781;28;20700;-71
2021/12/09 08:58:55;;;;;;;25.43;11.13;;;;;;;;;;5016988;28;20195;-71
2021/12/09 09:01:21;;;;;;;27.63;10.97;;;;;;;;;;5003417;28;20285;-70
2021/12/09 09:03:46;;;;;;;26.87;11.37;;;;;;;;;;5014759;28;20183;-70
2021/12/09 09:06:12;;;;;;;26.10;10.70;;;;;;;;;;5010085;28;20205;-70
2021/12/09 09:08:37;;;;;;;26.37;11.53;;;;;;;;;;5018591;28;20329;-70
2021/12/09 09:11:03;;;;;;;30.63;12.27;;;;;;;;;;5008950;28;20187;-70
2021/12/09 09:13:29;;;;;;;25.63;11.97;;;;;;;;;;5012975;28;20203;-70
2021/12/09 09:15:54;;;;;;;24.83;11.07;;;;;;;;;;5018607;28;20662;-70
2021/12/09 09:18:20;;;;;;;22.37;10.87;;;;;;;;;;5000206;28;20306;-70
2021/12/09 09:20:47;;;;;;;23.57;9.60;;;;;;;;;;5011982;28;20189;-70
2021/12/09 09:23:15;;;;;;;22.73;9.10;;;;;;;;;;5003884;28;20191;-70
2021/12/09 09:25:41;;;;;;;22.93;10.30;;;;;;;;;;5007252;28;20190;-70
2021/12/09 09:28:07;;;;;;;22.00;9.57;;;;;;;;;;4997698;28;20198;-70
2021/12/09 09:30:37;;;;;;;23.10;9.27;;;;;;;;;;5020139;28;20207;-71
2021/12/09 09:33:09;;;;;;;20.33;8.63;;;;;;;;;;4999509;28;20286;-71
2021/12/09 09:35:36;;;;;;;23.50;9.70;;;;;;;;;;5008722;28;20257;-70
2021/12/09 09:38:02;;;;;;;21.80;8.97;;;;;;;;;;5001296;28;20195;-71
2021/12/09 09:40:41;;;;;;;17.90;8.50;;;;;;;;;;5007911;28;20194;-71
2021/12/09 09:43:25;;;;;;;16.97;8.13;;;;;;;;;;4998473;28;20727;-71
2021/12/09 09:45:51;;;;;;;21.40;8.47;;;;;;;;;;5013847;28;20186;-71
2021/12/09 09:48:17;;;;;;;14.63;7.63;;;;;;;;;;5000201;28;20202;-71
2021/12/09 09:50:43;;;;;;;14.90;7.10;;;;;;;;;;5012783;28;20283;-70
2021/12/09 09:53:09;;;;;;;18.47;7.23;;;;;;;;;;5013764;28;20193;-69
2021/12/09 09:55:35;;;;;;;17.63;6.97;;;;;;;;;;4998826;28;20214;-70
2021/12/09 09:58:01;;;;;;;16.73;6.97;;;;;;;;;;5009285;28;20198;-72
2021/12/09 10:00:26;;;;;;;17.27;6.10;;;;;;;;;;5000582;28;20197;-71
2021/12/09 10:02:53;;;;;;;20.97;6.87;;;;;;;;;;5010724;28;20270;-70
2021/12/09 10:05:25;;;;;;;16.87;6.43;;;;;;;;;;5000165;28;20598;-71
2021/12/09 10:07:51;;;;;;;18.23;6.40;;;;;;;;;;5011668;28;20650;-71
2021/12/09 10:10:16;;;;;;;17.50;6.83;;;;;;;;;;5002501;28;20935;-70
2021/12/09 10:13:06;;;;;;;18.70;6.53;;;;;;;;;;5014167;28;20286;-71
2021/12/09 10:15:41;;;;;;;11.50;5.70;;;;;;;;;;5002619;28;20198;-71
2021/12/09 10:18:07;;;;;;;15.80;6.10;;;;;;;;;;5011986;28;20333;-70
2021/12/09 10:21:03;;;;;;;15.87;6.03;;;;;;;;;;5004208;28;20186;-70
2021/12/09 10:23:36;;;;;;;13.40;5.50;;;;;;;;;;5003436;28;20196;-71
2021/12/09 10:26:24;;;;;;;12.93;5.17;;;;;;;;;;5003408;28;20638;-71
2021/12/09 10:28:52;;;;;;;12.10;5.30;;;;;;;;;;5013902;28;20193;-70
2021/12/09 10:31:21;;;;;;;9.83;5.47;;;;;;;;;;5005429;28;20191;-72
2021/12/09 10:34:55;;;;;;;13.13;5.70;;;;;;;;;;5010697;28;20206;-72
2021/12/09 10:37:21;;;;;;;16.60;5.30;;;;;;;;;;5002895;28;20205;-72
2021/12/09 10:40:20;;;;;;;15.40;5.43;;;;;;;;;;5011602;28;20285;-72
2021/12/09 10:42:49;;;;;;;14.83;5.07;;;;;;;;;;4990869;28;20265;-72
2021/12/09 10:45:28;;;;;;;8.77;5.23;;;;;;;;;;5018927;28;20175;-73
2021/12/09 10:48:02;;;;;;;16.33;5.57;;;;;;;;;;5001065;28;20198;-72
2021/12/09 10:50:43;;;;;;;15.30;4.83;;;;;;;;;;5014500;28;20319;-72
2021/12/09 10:53:31;;;;;;;15.10;5.37;;;;;;;;;;5002360;28;21236;-71
2021/12/09 10:56:03;;;;;;;13.67;5.30;;;;;;;;;;5017622;28;20241;-72
2021/12/09 10:58:35;;;;;;;12.60;5.93;;;;;;;;;;4999731;28;20191;-72
2021/12/09 11:01:13;;;;;;;14.33;5.80;;;;;;;;;;5011445;28;20189;-73
2021/12/09 11:03:44;;;;;;;15.40;5.13;;;;;;;;;;5005655;28;20212;-72
2021/12/09 11:06:15;;;;;;;14.23;5.40;;;;;;;;;;5026950;28;20214;-72
2021/12/09 11:08:49;;;;;;;12.73;5.80;;;;;;;;;;5003022;28;20201;-72
2021/12/09 11:11:24;;;;;;;13.37;5.10;;;;;;;;;;5001175;28;20621;-72
2021/12/09 11:13:52;;;;;;;11.67;5.57;;;;;;;;;;4998310;28;20252;-72
2021/12/09 11:16:30;;;;;;;12.17;6.10;;;;;;;;;;5010437;28;20261;-72
2021/12/09 11:19:07;;;;;;;11.30;5.10;;;;;;;;;;5004732;28;20230;-72
2021/12/09 11:21:37;;;;;;;13.30;5.23;;;;;;;;;;5006534;28;20199;-72
2021/12/09 11:24:10;;;;;;;16.23;5.67;;;;;;;;;;5000408;28;20256;-72
2021/12/09 11:29:13;;;;;;;14.33;5.97;;;;;;;;;;5006075;28;20542;-72
2021/12/09 11:32:07;;;;;;;13.87;5.43;;;;;;;;;;5008683;28;20281;-72
2021/12/09 11:34:40;;;;;;;14.97;5.03;;;;;;;;;;5001514;28;20595;-72
2021/12/09 11:37:22;;;;;;;17.07;5.90;;;;;;;;;;5018638;28;20693;-72
2021/12/09 11:39:48;;;;;;;11.50;6.27;;;;;;;;;;4999063;28;20183;-73
2021/12/09 11:42:19;;;;;;;12.67;5.80;;;;;;;;;;5015486;28;20198;-73
2021/12/09 11:44:46;;;;;;;14.07;5.30;;;;;;;;;;5001344;28;20245;-72
2021/12/09 11:47:13;;;;;;;12.67;5.80;;;;;;;;;;5005959;28;20289;-72
2021/12/09 11:49:38;;;;;;;12.97;5.30;;;;;;;;;;4998537;28;20182;-73
2021/12/09 11:52:04;;;;;;;12.63;5.10;;;;;;;;;;5018478;28;20183;-73
2021/12/09 11:54:29;;;;;;;11.27;5.17;;;;;;;;;;4999687;28;20217;-73
2021/12/09 11:57:10;;;;;;;17.37;5.67;;;;;;;;;;5014457;28;20236;-74
2021/12/09 12:06:38;;;;;;;11.07;4.70;;;;;;;;;;5008531;28;20268;-72
2021/12/09 12:11:23;;;;;;;11.90;5.50;;;;;;;;;;4998061;28;20202;-72
2021/12/09 12:17:20;;;;;;;12.47;5.77;;;;;;;;;;4995666;28;20195;-72
2021/12/09 12:20:08;;;;;;;13.50;5.70;;;;;;;;;;5011164;28;20293;-72
2021/12/09 12:28:30;;;;;;;17.80;6.73;;;;;;;;;;4993510;28;20205;-72
2021/12/09 12:34:54;;;;;;;11.60;6.20;;;;;;;;;;4989137;28;20239;-72
2021/12/09 12:39:46;;;;;;;14.33;6.90;;;;;;;;;;5012877;28;20195;-72
2021/12/09 12:43:02;;;;;;;16.60;6.97;;;;;;;;;;4993489;28;20186;-72
2021/12/09 12:47:59;;;;;;;13.83;7.33;;;;;;;;;;5005180;28;20205;-72
2021/12/09 12:50:25;;;;;;;11.97;7.20;;;;;;;;;;5004735;28;20457;-71
2021/12/09 12:52:51;;;;;;;13.73;7.33;;;;;;;;;;5003573;28;20190;-72
2021/12/09 12:55:24;;;;;;;11.77;7.07;;;;;;;;;;5003197;28;20210;-72
2021/12/09 12:57:52;;;;;;;15.73;7.80;;;;;;;;;;5008567;28;20186;-72
2021/12/09 13:00:31;;;;;;;19.37;7.43;;;;;;;;;;4658601;28;10000330;-72
2021/12/09 13:06:01;;;;;;;15.87;7.80;;;;;;;;;;5011892;28;20186;-72
2021/12/09 13:11:45;;;;;;;13.33;6.83;;;;;;;;;;5011908;28;20214;-72
2021/12/09 13:14:19;;;;;;;15.20;6.50;;;;;;;;;;4991794;28;20230;-72
2021/12/09 13:17:19;;;;;;;12.20;7.43;;;;;;;;;;5006037;28;21921;-73
2021/12/09 13:20:07;;;;;;;14.80;7.80;;;;;;;;;;4993172;28;20524;-72
2021/12/09 13:22:38;;;;;;;15.43;7.77;;;;;;;;;;5005933;28;20225;-72
2021/12/09 13:25:30;;;;;;;17.53;7.97;;;;;;;;;;4996938;28;20633;-72
2021/12/09 13:36:12;;;;;;;15.67;7.57;;;;;;;;;;4997222;28;20288;-72
2021/12/09 13:49:24;;;;;;;19.90;8.30;;;;;;;;;;5016982;28;20195;-72
2021/12/09 13:56:47;;;;;;;19.47;7.40;;;;;;;;;;4998791;28;20205;-73
2021/12/09 13:59:21;;;;;;;13.73;7.93;;;;;;;;;;5005261;28;20202;-72
2021/12/09 14:01:48;;;;;;;12.90;7.80;;;;;;;;;;5003082;28;20731;-73
2021/12/09 14:04:17;;;;;;;18.37;8.17;;;;;;;;;;5006290;28;20194;-72
2021/12/09 14:07:09;;;;;;;14.00;7.57;;;;;;;;;;4992677;28;20668;-72
2021/12/09 14:09:36;;;;;;;18.57;8.60;;;;;;;;;;5007213;28;20194;-72
2021/12/09 14:12:03;;;;;;;14.80;7.50;;;;;;;;;;4997013;28;20507;-72
2021/12/09 14:14:41;;;;;;;15.27;7.93;;;;;;;;;;5002001;28;20566;-72
2021/12/09 14:17:11;;;;;;;12.03;7.57;;;;;;;;;;5001014;28;20621;-72
2021/12/09 14:19:58;;;;;;;17.93;7.50;;;;;;;;;;5004563;28;20203;-72
2021/12/09 14:22:45;;;;;;;12.70;7.70;;;;;;;;;;4994605;28;20379;-72
2021/12/09 14:25:21;;;;;;;16.63;7.53;;;;;;;;;;5004496;28;20218;-73
2021/12/09 14:27:50;;;;;;;14.13;7.80;;;;;;;;;;5002613;28;20247;-72
2021/12/09 14:30:16;;;;;;;17.70;7.80;;;;;;;;;;5000989;28;20186;-73
2021/12/09 14:32:48;;;;;;;15.90;8.07;;;;;;;;;;4994605;28;20293;-72
2021/12/09 14:35:22;;;;;;;18.13;8.10;;;;;;;;;;4997823;28;20198;-73
2021/12/09 14:37:49;;;;;;;14.47;7.70;;;;;;;;;;5003369;28;20520;-72
2021/12/09 14:40:20;;;;;;;15.03;8.20;;;;;;;;;;5004361;28;20631;-73
2021/12/09 14:42:51;;;;;;;12.53;7.73;;;;;;;;;;5002886;28;20244;-72
2021/12/09 14:45:16;;;;;;;11.90;8.00;;;;;;;;;;5006656;28;20182;-72
2021/12/09 14:47:57;;;;;;;17.40;8.20;;;;;;;;;;5002578;28;20194;-72
2021/12/09 14:50:35;;;;;;;13.70;8.00;;;;;;;;;;4999167;28;20186;-72
2021/12/09 14:53:00;;;;;;;15.50;7.87;;;;;;;;;;5002665;28;20210;-72
2021/12/09 14:55:27;;;;;;;15.67;8.63;;;;;;;;;;4994514;28;20223;-72
2021/12/09 14:58:13;;;;;;;15.73;8.30;;;;;;;;;;5006293;28;20277;-72
2021/12/09 15:00:49;;;;;;;17.40;7.73;;;;;;;;;;4993227;28;20248;-73
2021/12/09 15:03:28;;;;;;;12.33;8.13;;;;;;;;;;5015601;28;20192;-72
2021/12/09 15:06:00;;;;;;;12.97;8.37;;;;;;;;;;4995885;28;20568;-72
2021/12/09 15:08:27;;;;;;;15.07;7.93;;;;;;;;;;5004004;28;20190;-72
2021/12/09 15:11:07;;;;;;;16.03;8.53;;;;;;;;;;4998093;28;20298;-72
2021/12/09 15:13:43;;;;;;;13.07;8.30;;;;;;;;;;5009268;28;20213;-72
2021/12/09 15:16:09;;;;;;;13.23;8.57;;;;;;;;;;4995369;28;20195;-72
2021/12/09 15:18:39;;;;;;;14.83;8.73;;;;;;;;;;5004236;28;20301;-72
2021/12/09 15:21:30;;;;;;;16.23;8.23;;;;;;;;;;4995879;28;20199;-73
2021/12/09 15:24:11;;;;;;;16.07;8.20;;;;;;;;;;4997667;28;20234;-72
2021/12/09 15:26:39;;;;;;;17.83;8.70;;;;;;;;;;4995435;28;20209;-73
2021/12/09 15:29:14;;;;;;;15.83;8.77;;;;;;;;;;5003898;28;20198;-72
2021/12/09 15:31:41;;;;;;;16.37;8.13;;;;;;;;;;4994911;28;20200;-73
2021/12/09 15:34:17;;;;;;;14.50;8.67;;;;;;;;;;5003643;28;20238;-72
2021/12/09 15:36:55;;;;;;;13.57;7.83;;;;;;;;;;5006456;28;20360;-72
2021/12/09 15:39:23;;;;;;;15.47;8.73;;;;;;;;;;5003165;28;20318;-72
2021/12/09 15:42:05;;;;;;;14.33;8.23;;;;;;;;;;4993314;28;20198;-72
2021/12/09 15:44:37;;;;;;;12.37;7.27;;;;;;;;;;5001864;28;20179;-72